sensor_id;sensor_type;location;lat;lon;timestamp;temperature;humidity
57709;SHT35;42558;52.388;13.390;2023-06-26T00:01:46;18.00;84.85
57709;SHT35;42558;52.388;13.390;2023-06-26T00:04:16;17.99;84.85
57709;SHT35;42558;52.388;13.390;2023-06-26T00:06:46;17.98;84.95
57709;SHT35;42558;52.388;13.390;2023-06-26T00:09:16;17.99;85.22
57709;SHT35;42558;52.388;13.390;2023-06-26T00:11:46;17.97;85.48
57709;SHT35;42558;52.388;13.390;2023-06-26T00:14:16;17.94;85.50
57709;SHT35;42558;52.388;13.390;2023-06-26T00:16:48;17.92;85.57
57709;SHT35;42558;52.388;13.390;2023-06-26T00:19:19;17.90;85.61
57709;SHT35;42558;52.388;13.390;2023-06-26T00:21:49;17.87;85.81
57709;SHT35;42558;52.388;13.390;2023-06-26T00:24:17;17.83;85.82
57709;SHT35;42558;52.388;13.390;2023-06-26T00:26:46;17.81;85.71
57709;SHT35;42558;52.388;13.390;2023-06-26T00:29:14;17.80;85.59
57709;SHT35;42558;52.388;13.390;2023-06-26T00:31:43;17.81;85.62
57709;SHT35;42558;52.388;13.390;2023-06-26T00:34:11;17.79;85.69
57709;SHT35;42558;52.388;13.390;2023-06-26T00:36:40;17.75;85.78
57709;SHT35;42558;52.388;13.390;2023-06-26T00:39:11;17.73;85.83
57709;SHT35;42558;52.388;13.390;2023-06-26T00:41:40;17.70;85.83
57709;SHT35;42558;52.388;13.390;2023-06-26T00:44:08;17.67;85.68
57709;SHT35;42558;52.388;13.390;2023-06-26T00:46:37;17.66;85.61
57709;SHT35;42558;52.388;13.390;2023-06-26T00:49:05;17.65;85.75
57709;SHT35;42558;52.388;13.390;2023-06-26T00:51:34;17.63;85.90
57709;SHT35;42558;52.388;13.390;2023-06-26T00:54:02;17.62;85.98
57709;SHT35;42558;52.388;13.390;2023-06-26T00:56:31;17.60;85.95
57709;SHT35;42558;52.388;13.390;2023-06-26T00:58:59;17.58;85.92
57709;SHT35;42558;52.388;13.390;2023-06-26T01:01:28;17.57;86.02
57709;SHT35;42558;52.388;13.390;2023-06-26T01:03:56;17.55;86.09
57709;SHT35;42558;52.388;13.390;2023-06-26T01:06:25;17.52;86.25
57709;SHT35;42558;52.388;13.390;2023-06-26T01:09:01;17.49;86.27
57709;SHT35;42558;52.388;13.390;2023-06-26T01:11:32;17.48;86.24
57709;SHT35;42558;52.388;13.390;2023-06-26T01:14:02;17.46;86.13
57709;SHT35;42558;52.388;13.390;2023-06-26T01:16:32;17.46;86.21
57709;SHT35;42558;52.388;13.390;2023-06-26T01:19:09;17.45;86.25
57709;SHT35;42558;52.388;13.390;2023-06-26T01:21:49;17.40;86.22
57709;SHT35;42558;52.388;13.390;2023-06-26T01:24:29;17.38;86.32
57709;SHT35;42558;52.388;13.390;2023-06-26T01:27:06;17.36;86.32
57709;SHT35;42558;52.388;13.390;2023-06-26T01:29:36;17.36;86.38
57709;SHT35;42558;52.388;13.390;2023-06-26T01:32:09;17.34;86.50
57709;SHT35;42558;52.388;13.390;2023-06-26T01:34:39;17.31;86.57
57709;SHT35;42558;52.388;13.390;2023-06-26T01:37:09;17.29;86.62
57709;SHT35;42558;52.388;13.390;2023-06-26T01:39:39;17.29;86.63
57709;SHT35;42558;52.388;13.390;2023-06-26T01:42:09;17.29;86.79
57709;SHT35;42558;52.388;13.390;2023-06-26T01:44:41;17.34;87.14
57709;SHT35;42558;52.388;13.390;2023-06-26T01:47:14;17.34;87.18
57709;SHT35;42558;52.388;13.390;2023-06-26T01:52:43;17.23;87.12
57709;SHT35;42558;52.388;13.390;2023-06-26T01:58:11;17.16;87.36
57709;SHT35;42558;52.388;13.390;2023-06-26T02:00:44;17.15;87.35
57709;SHT35;42558;52.388;13.390;2023-06-26T02:03:14;17.15;87.41
57709;SHT35;42558;52.388;13.390;2023-06-26T02:05:44;17.15;87.48
57709;SHT35;42558;52.388;13.390;2023-06-26T02:08:14;17.11;87.35
57709;SHT35;42558;52.388;13.390;2023-06-26T02:10:44;17.08;87.30
57709;SHT35;42558;52.388;13.390;2023-06-26T02:13:14;17.06;87.30
57709;SHT35;42558;52.388;13.390;2023-06-26T02:15:44;17.04;87.27
57709;SHT35;42558;52.388;13.390;2023-06-26T02:18:13;17.03;87.26
57709;SHT35;42558;52.388;13.390;2023-06-26T02:20:41;17.02;87.31
57709;SHT35;42558;52.388;13.390;2023-06-26T02:23:12;17.00;87.39
57709;SHT35;42558;52.388;13.390;2023-06-26T02:25:41;16.98;87.38
57709;SHT35;42558;52.388;13.390;2023-06-26T02:28:09;16.97;87.36
57709;SHT35;42558;52.388;13.390;2023-06-26T02:30:38;16.95;87.36
57709;SHT35;42558;52.388;13.390;2023-06-26T02:33:07;16.94;87.36
57709;SHT35;42558;52.388;13.390;2023-06-26T02:35:37;16.94;87.39
57709;SHT35;42558;52.388;13.390;2023-06-26T02:38:05;16.94;87.45
57709;SHT35;42558;52.388;13.390;2023-06-26T02:40:34;16.94;87.60
57709;SHT35;42558;52.388;13.390;2023-06-26T02:43:02;16.92;87.68
57709;SHT35;42558;52.388;13.390;2023-06-26T02:45:31;16.91;87.69
57709;SHT35;42558;52.388;13.390;2023-06-26T02:47:59;16.89;87.64
57709;SHT35;42558;52.388;13.390;2023-06-26T02:50:28;16.89;87.70
57709;SHT35;42558;52.388;13.390;2023-06-26T02:52:57;16.87;87.62
57709;SHT35;42558;52.388;13.390;2023-06-26T02:55:26;16.88;87.70
57709;SHT35;42558;52.388;13.390;2023-06-26T02:57:54;16.89;87.78
57709;SHT35;42558;52.388;13.390;2023-06-26T03:00:23;16.90;87.91
57709;SHT35;42558;52.388;13.390;2023-06-26T03:02:51;16.87;87.99
57709;SHT35;42558;52.388;13.390;2023-06-26T03:05:20;16.86;87.98
57709;SHT35;42558;52.388;13.390;2023-06-26T03:07:48;16.86;88.00
57709;SHT35;42558;52.388;13.390;2023-06-26T03:10:16;16.86;87.91
57709;SHT35;42558;52.388;13.390;2023-06-26T03:12:45;16.87;87.93
57709;SHT35;42558;52.388;13.390;2023-06-26T03:15:13;16.88;88.00
57709;SHT35;42558;52.388;13.390;2023-06-26T03:17:42;16.86;87.96
57709;SHT35;42558;52.388;13.390;2023-06-26T03:20:10;16.87;88.00
57709;SHT35;42558;52.388;13.390;2023-06-26T03:22:39;16.87;88.00
57709;SHT35;42558;52.388;13.390;2023-06-26T03:25:07;16.90;88.10
57709;SHT35;42558;52.388;13.390;2023-06-26T03:27:36;16.91;88.04
57709;SHT35;42558;52.388;13.390;2023-06-26T03:30:04;16.93;87.99
57709;SHT35;42558;52.388;13.390;2023-06-26T03:32:39;16.96;88.00
57709;SHT35;42558;52.388;13.390;2023-06-26T03:35:09;16.99;87.95
57709;SHT35;42558;52.388;13.390;2023-06-26T03:37:39;17.04;88.05
57709;SHT35;42558;52.388;13.390;2023-06-26T03:40:09;17.08;88.06
57709;SHT35;42558;52.388;13.390;2023-06-26T03:42:40;17.13;88.10
57709;SHT35;42558;52.388;13.390;2023-06-26T03:45:09;17.20;88.15
57709;SHT35;42558;52.388;13.390;2023-06-26T03:47:39;17.29;88.19
57709;SHT35;42558;52.388;13.390;2023-06-26T03:50:09;17.37;88.26
57709;SHT35;42558;52.388;13.390;2023-06-26T03:52:39;17.46;88.32
57709;SHT35;42558;52.388;13.390;2023-06-26T03:55:09;17.53;88.33
57709;SHT35;42558;52.388;13.390;2023-06-26T03:57:39;17.63;88.37
57709;SHT35;42558;52.388;13.390;2023-06-26T04:00:10;17.72;88.40
57709;SHT35;42558;52.388;13.390;2023-06-26T04:02:42;17.84;88.42
57709;SHT35;42558;52.388;13.390;2023-06-26T04:05:12;17.93;88.49
57709;SHT35;42558;52.388;13.390;2023-06-26T04:07:43;18.03;88.42
57709;SHT35;42558;52.388;13.390;2023-06-26T04:10:13;18.14;88.32
57709;SHT35;42558;52.388;13.390;2023-06-26T04:12:43;18.21;88.13
57709;SHT35;42558;52.388;13.390;2023-06-26T04:15:13;18.29;87.96
57709;SHT35;42558;52.388;13.390;2023-06-26T04:17:43;18.37;87.78
57709;SHT35;42558;52.388;13.390;2023-06-26T04:20:13;18.46;87.68
57709;SHT35;42558;52.388;13.390;2023-06-26T04:22:44;18.55;87.61
57709;SHT35;42558;52.388;13.390;2023-06-26T04:25:14;18.63;87.60
57709;SHT35;42558;52.388;13.390;2023-06-26T04:27:44;18.70;87.59
57709;SHT35;42558;52.388;13.390;2023-06-26T04:30:14;18.78;87.57
57709;SHT35;42558;52.388;13.390;2023-06-26T04:32:44;18.86;87.54
57709;SHT35;42558;52.388;13.390;2023-06-26T04:35:13;18.92;87.39
57709;SHT35;42558;52.388;13.390;2023-06-26T04:37:41;18.96;87.06
57709;SHT35;42558;52.388;13.390;2023-06-26T04:40:10;19.00;86.42
57709;SHT35;42558;52.388;13.390;2023-06-26T04:42:38;19.14;86.25
57709;SHT35;42558;52.388;13.390;2023-06-26T04:45:07;19.22;85.69
57709;SHT35;42558;52.388;13.390;2023-06-26T04:47:35;19.23;84.61
57709;SHT35;42558;52.388;13.390;2023-06-26T04:50:04;19.28;84.01
57709;SHT35;42558;52.388;13.390;2023-06-26T04:52:32;19.31;83.75
57709;SHT35;42558;52.388;13.390;2023-06-26T04:55:00;19.39;83.50
57709;SHT35;42558;52.388;13.390;2023-06-26T04:57:29;19.53;83.73
57709;SHT35;42558;52.388;13.390;2023-06-26T04:59:57;19.68;83.73
57709;SHT35;42558;52.388;13.390;2023-06-26T05:02:26;19.80;83.45
57709;SHT35;42558;52.388;13.390;2023-06-26T05:04:54;19.96;83.17
57709;SHT35;42558;52.388;13.390;2023-06-26T05:07:22;20.10;82.11
57709;SHT35;42558;52.388;13.390;2023-06-26T05:09:51;20.16;81.08
57709;SHT35;42558;52.388;13.390;2023-06-26T05:12:19;20.22;80.49
57709;SHT35;42558;52.388;13.390;2023-06-26T05:14:48;20.22;79.90
57709;SHT35;42558;52.388;13.390;2023-06-26T05:17:16;20.23;79.54
57709;SHT35;42558;52.388;13.390;2023-06-26T05:19:45;20.25;79.38
57709;SHT35;42558;52.388;13.390;2023-06-26T05:22:13;20.22;79.28
57709;SHT35;42558;52.388;13.390;2023-06-26T05:24:42;20.25;79.35
57709;SHT35;42558;52.388;13.390;2023-06-26T05:27:16;20.31;79.63
57709;SHT35;42558;52.388;13.390;2023-06-26T05:29:48;20.34;79.59
57709;SHT35;42558;52.388;13.390;2023-06-26T05:32:17;20.35;79.94
57709;SHT35;42558;52.388;13.390;2023-06-26T05:34:46;20.32;79.76
57709;SHT35;42558;52.388;13.390;2023-06-26T05:37:18;20.28;79.55
57709;SHT35;42558;52.388;13.390;2023-06-26T05:39:51;20.27;79.79
57709;SHT35;42558;52.388;13.390;2023-06-26T05:42:22;20.30;79.39
57709;SHT35;42558;52.388;13.390;2023-06-26T05:44:52;20.56;79.27
57709;SHT35;42558;52.388;13.390;2023-06-26T05:47:22;20.86;78.59
57709;SHT35;42558;52.388;13.390;2023-06-26T05:49:53;20.87;76.87
57709;SHT35;42558;52.388;13.390;2023-06-26T05:52:23;21.13;76.70
57709;SHT35;42558;52.388;13.390;2023-06-26T05:54:53;21.38;75.75
57709;SHT35;42558;52.388;13.390;2023-06-26T05:57:24;21.53;75.01
57709;SHT35;42558;52.388;13.390;2023-06-26T05:59:55;21.81;74.60
57709;SHT35;42558;52.388;13.390;2023-06-26T06:02:26;21.95;72.82
57709;SHT35;42558;52.388;13.390;2023-06-26T06:04:57;22.13;72.08
57709;SHT35;42558;52.388;13.390;2023-06-26T06:07:27;22.22;71.34
57709;SHT35;42558;52.388;13.390;2023-06-26T06:09:57;22.49;70.56
57709;SHT35;42558;52.388;13.390;2023-06-26T06:12:28;22.78;69.39
57709;SHT35;42558;52.388;13.390;2023-06-26T06:14:58;22.91;70.21
57709;SHT35;42558;52.388;13.390;2023-06-26T06:17:28;23.42;68.86
57709;SHT35;42558;52.388;13.390;2023-06-26T06:19:58;23.54;67.30
57709;SHT35;42558;52.388;13.390;2023-06-26T06:22:28;23.47;65.93
57709;SHT35;42558;52.388;13.390;2023-06-26T06:24:58;23.55;67.29
57709;SHT35;42558;52.388;13.390;2023-06-26T06:27:28;23.86;65.95
57709;SHT35;42558;52.388;13.390;2023-06-26T06:29:58;24.04;65.47
57709;SHT35;42558;52.388;13.390;2023-06-26T06:32:28;23.93;64.65
57709;SHT35;42558;52.388;13.390;2023-06-26T06:34:58;24.24;64.40
57709;SHT35;42558;52.388;13.390;2023-06-26T06:37:28;24.42;63.14
57709;SHT35;42558;52.388;13.390;2023-06-26T06:40:01;24.74;63.89
57709;SHT35;42558;52.388;13.390;2023-06-26T06:42:29;24.66;62.39
57709;SHT35;42558;52.388;13.390;2023-06-26T06:44:57;25.10;62.26
57709;SHT35;42558;52.388;13.390;2023-06-26T06:47:26;25.34;59.94
57709;SHT35;42558;52.388;13.390;2023-06-26T06:49:54;25.27;60.57
57709;SHT35;42558;52.388;13.390;2023-06-26T06:52:23;25.76;59.69
57709;SHT35;42558;52.388;13.390;2023-06-26T06:54:52;25.76;59.91
57709;SHT35;42558;52.388;13.390;2023-06-26T06:57:35;26.06;58.66
57709;SHT35;42558;52.388;13.390;2023-06-26T07:00:08;25.70;58.06
57709;SHT35;42558;52.388;13.390;2023-06-26T07:02:42;25.50;59.90
57709;SHT35;42558;52.388;13.390;2023-06-26T07:05:14;25.78;60.93
57709;SHT35;42558;52.388;13.390;2023-06-26T07:07:46;26.24;59.08
57709;SHT35;42558;52.388;13.390;2023-06-26T07:10:14;26.52;60.43
57709;SHT35;42558;52.388;13.390;2023-06-26T07:12:43;26.75;59.40
57709;SHT35;42558;52.388;13.390;2023-06-26T07:15:11;26.81;58.42
57709;SHT35;42558;52.388;13.390;2023-06-26T07:17:39;26.64;58.33
57709;SHT35;42558;52.388;13.390;2023-06-26T07:20:08;26.89;58.68
57709;SHT35;42558;52.388;13.390;2023-06-26T07:22:43;26.61;56.51
57709;SHT35;42558;52.388;13.390;2023-06-26T07:25:14;26.48;57.07
57709;SHT35;42558;52.388;13.390;2023-06-26T07:27:44;26.68;56.93
57709;SHT35;42558;52.388;13.390;2023-06-26T07:30:17;26.44;57.54
57709;SHT35;42558;52.388;13.390;2023-06-26T07:32:44;26.75;56.57
57709;SHT35;42558;52.388;13.390;2023-06-26T07:35:15;27.29;56.79
57709;SHT35;42558;52.388;13.390;2023-06-26T07:37:45;27.32;54.57
57709;SHT35;42558;52.388;13.390;2023-06-26T07:40:15;27.21;54.82
57709;SHT35;42558;52.388;13.390;2023-06-26T07:42:46;27.82;54.00
57709;SHT35;42558;52.388;13.390;2023-06-26T07:45:16;27.85;55.06
57709;SHT35;42558;52.388;13.390;2023-06-26T07:47:46;28.07;53.63
57709;SHT35;42558;52.388;13.390;2023-06-26T07:50:16;27.99;54.24
57709;SHT35;42558;52.388;13.390;2023-06-26T07:52:51;28.08;53.24
57709;SHT35;42558;52.388;13.390;2023-06-26T07:55:21;27.89;53.55
57709;SHT35;42558;52.388;13.390;2023-06-26T07:57:51;28.23;53.41
57709;SHT35;42558;52.388;13.390;2023-06-26T08:00:21;28.61;52.51
57709;SHT35;42558;52.388;13.390;2023-06-26T08:02:52;28.42;51.91
57709;SHT35;42558;52.388;13.390;2023-06-26T08:05:22;28.38;52.07
57709;SHT35;42558;52.388;13.390;2023-06-26T08:07:50;28.33;51.51
57709;SHT35;42558;52.388;13.390;2023-06-26T08:10:19;28.51;52.25
57709;SHT35;42558;52.388;13.390;2023-06-26T08:12:47;29.06;50.20
57709;SHT35;42558;52.388;13.390;2023-06-26T08:15:18;28.73;50.98
57709;SHT35;42558;52.388;13.390;2023-06-26T08:17:47;28.72;49.29
57709;SHT35;42558;52.388;13.390;2023-06-26T08:20:15;28.97;50.42
57709;SHT35;42558;52.388;13.390;2023-06-26T08:22:44;29.04;48.45
57709;SHT35;42558;52.388;13.390;2023-06-26T08:25:12;28.15;48.92
57709;SHT35;42558;52.388;13.390;2023-06-26T08:27:41;28.31;49.77
57709;SHT35;42558;52.388;13.390;2023-06-26T08:30:09;28.85;48.64
57709;SHT35;42558;52.388;13.390;2023-06-26T08:32:45;28.72;48.00
57709;SHT35;42558;52.388;13.390;2023-06-26T08:35:15;28.55;49.50
57709;SHT35;42558;52.388;13.390;2023-06-26T08:37:45;28.95;48.22
57709;SHT35;42558;52.388;13.390;2023-06-26T08:40:16;29.02;48.88
57709;SHT35;42558;52.388;13.390;2023-06-26T08:42:50;29.09;48.20
57709;SHT35;42558;52.388;13.390;2023-06-26T08:45:21;28.83;48.51
57709;SHT35;42558;52.388;13.390;2023-06-26T08:47:51;28.87;48.10
57709;SHT35;42558;52.388;13.390;2023-06-26T08:50:22;29.33;49.03
57709;SHT35;42558;52.388;13.390;2023-06-26T08:56:18;29.72;48.35
57709;SHT35;42558;52.388;13.390;2023-06-26T08:58:51;29.94;47.33
57709;SHT35;42558;52.388;13.390;2023-06-26T09:01:21;30.04;46.85
57709;SHT35;42558;52.388;13.390;2023-06-26T09:03:53;29.91;46.07
57709;SHT35;42558;52.388;13.390;2023-06-26T09:06:21;30.07;46.25
57709;SHT35;42558;52.388;13.390;2023-06-26T09:08:50;29.45;47.47
57709;SHT35;42558;52.388;13.390;2023-06-26T09:11:18;29.05;48.83
57709;SHT35;42558;52.388;13.390;2023-06-26T09:13:48;29.40;47.37
57709;SHT35;42558;52.388;13.390;2023-06-26T09:16:16;29.59;48.56
57709;SHT35;42558;52.388;13.390;2023-06-26T09:18:45;30.02;46.17
57709;SHT35;42558;52.388;13.390;2023-06-26T09:21:13;29.15;46.88
57709;SHT35;42558;52.388;13.390;2023-06-26T09:23:42;29.32;46.91
57709;SHT35;42558;52.388;13.390;2023-06-26T09:26:10;30.07;47.39
57709;SHT35;42558;52.388;13.390;2023-06-26T09:28:42;30.45;45.71
57709;SHT35;42558;52.388;13.390;2023-06-26T09:31:10;30.01;45.60
57709;SHT35;42558;52.388;13.390;2023-06-26T09:33:45;30.01;45.41
57709;SHT35;42558;52.388;13.390;2023-06-26T09:36:20;30.03;46.99
57709;SHT35;42558;52.388;13.390;2023-06-26T09:38:51;29.53;45.21
57709;SHT35;42558;52.388;13.390;2023-06-26T09:41:19;29.84;45.37
57709;SHT35;42558;52.388;13.390;2023-06-26T09:43:48;30.03;45.38
57709;SHT35;42558;52.388;13.390;2023-06-26T09:46:26;30.57;44.90
57709;SHT35;42558;52.388;13.390;2023-06-26T09:51:35;31.02;43.05
57709;SHT35;42558;52.388;13.390;2023-06-26T09:54:07;30.53;43.52
57709;SHT35;42558;52.388;13.390;2023-06-26T09:56:41;30.27;45.37
57709;SHT35;42558;52.388;13.390;2023-06-26T09:59:11;30.55;44.21
57709;SHT35;42558;52.388;13.390;2023-06-26T10:01:45;30.73;44.90
57709;SHT35;42558;52.388;13.390;2023-06-26T10:04:17;30.55;43.55
57709;SHT35;42558;52.388;13.390;2023-06-26T10:06:47;30.47;44.20
57709;SHT35;42558;52.388;13.390;2023-06-26T10:09:23;30.35;44.70
57709;SHT35;42558;52.388;13.390;2023-06-26T10:12:01;30.51;44.42
57709;SHT35;42558;52.388;13.390;2023-06-26T10:14:34;30.47;44.86
57709;SHT35;42558;52.388;13.390;2023-06-26T10:17:09;30.80;45.30
57709;SHT35;42558;52.388;13.390;2023-06-26T10:19:44;30.51;44.36
57709;SHT35;42558;52.388;13.390;2023-06-26T10:22:15;30.44;45.98
57709;SHT35;42558;52.388;13.390;2023-06-26T10:24:47;30.87;43.42
57709;SHT35;42558;52.388;13.390;2023-06-26T10:27:20;31.05;43.13
57709;SHT35;42558;52.388;13.390;2023-06-26T10:29:55;30.71;43.63
57709;SHT35;42558;52.388;13.390;2023-06-26T10:32:30;30.49;44.31
57709;SHT35;42558;52.388;13.390;2023-06-26T10:35:01;31.00;44.57
57709;SHT35;42558;52.388;13.390;2023-06-26T10:37:46;30.60;43.61
57709;SHT35;42558;52.388;13.390;2023-06-26T10:40:25;30.97;43.78
57709;SHT35;42558;52.388;13.390;2023-06-26T10:43:06;30.02;42.64
57709;SHT35;42558;52.388;13.390;2023-06-26T10:45:48;30.27;43.57
57709;SHT35;42558;52.388;13.390;2023-06-26T10:48:22;30.74;43.20
57709;SHT35;42558;52.388;13.390;2023-06-26T10:50:57;30.90;40.85
57709;SHT35;42558;52.388;13.390;2023-06-26T10:53:25;30.99;40.39
57709;SHT35;42558;52.388;13.390;2023-06-26T10:55:58;30.77;42.89
57709;SHT35;42558;52.388;13.390;2023-06-26T11:03:44;30.78;43.08
57709;SHT35;42558;52.388;13.390;2023-06-26T11:06:20;30.56;42.49
57709;SHT35;42558;52.388;13.390;2023-06-26T11:08:54;30.56;43.09
57709;SHT35;42558;52.388;13.390;2023-06-26T11:14:24;31.18;42.85
57709;SHT35;42558;52.388;13.390;2023-06-26T11:16:59;30.75;43.13
57709;SHT35;42558;52.388;13.390;2023-06-26T11:19:33;31.11;42.47
57709;SHT35;42558;52.388;13.390;2023-06-26T11:22:03;30.87;42.79
57709;SHT35;42558;52.388;13.390;2023-06-26T11:24:35;31.36;42.95
57709;SHT35;42558;52.388;13.390;2023-06-26T11:27:06;31.82;42.06
57709;SHT35;42558;52.388;13.390;2023-06-26T11:29:36;31.75;42.24
57709;SHT35;42558;52.388;13.390;2023-06-26T11:32:06;31.55;42.41
57709;SHT35;42558;52.388;13.390;2023-06-26T11:34:36;31.63;42.95
57709;SHT35;42558;52.388;13.390;2023-06-26T11:37:07;31.58;42.33
57709;SHT35;42558;52.388;13.390;2023-06-26T11:39:37;31.27;41.87
57709;SHT35;42558;52.388;13.390;2023-06-26T11:42:07;31.07;40.63
57709;SHT35;42558;52.388;13.390;2023-06-26T11:44:43;31.20;41.96
57709;SHT35;42558;52.388;13.390;2023-06-26T11:47:14;31.40;41.29
57709;SHT35;42558;52.388;13.390;2023-06-26T11:49:46;31.16;41.44
57709;SHT35;42558;52.388;13.390;2023-06-26T11:52:17;31.25;42.27
57709;SHT35;42558;52.388;13.390;2023-06-26T11:54:46;31.20;42.05
57709;SHT35;42558;52.388;13.390;2023-06-26T11:57:15;31.17;41.91
57709;SHT35;42558;52.388;13.390;2023-06-26T11:59:43;31.01;42.62
57709;SHT35;42558;52.388;13.390;2023-06-26T12:02:12;30.82;41.34
57709;SHT35;42558;52.388;13.390;2023-06-26T12:04:44;30.96;42.50
57709;SHT35;42558;52.388;13.390;2023-06-26T12:07:15;30.97;41.85
57709;SHT35;42558;52.388;13.390;2023-06-26T12:09:47;31.16;42.96
57709;SHT35;42558;52.388;13.390;2023-06-26T12:12:18;30.99;42.16
57709;SHT35;42558;52.388;13.390;2023-06-26T12:14:48;30.90;43.72
57709;SHT35;42558;52.388;13.390;2023-06-26T12:17:21;31.33;43.79
57709;SHT35;42558;52.388;13.390;2023-06-26T12:19:54;31.25;42.36
57709;SHT35;42558;52.388;13.390;2023-06-26T12:22:23;31.03;43.39
57709;SHT35;42558;52.388;13.390;2023-06-26T12:24:51;30.45;44.00
57709;SHT35;42558;52.388;13.390;2023-06-26T12:27:20;30.38;45.56
57709;SHT35;42558;52.388;13.390;2023-06-26T12:29:52;30.42;45.17
57709;SHT35;42558;52.388;13.390;2023-06-26T12:32:24;30.29;44.28
57709;SHT35;42558;52.388;13.390;2023-06-26T12:34:57;30.36;45.31
57709;SHT35;42558;52.388;13.390;2023-06-26T12:37:28;30.54;45.38
57709;SHT35;42558;52.388;13.390;2023-06-26T12:39:58;30.73;44.56
57709;SHT35;42558;52.388;13.390;2023-06-26T12:42:28;30.87;44.16
57709;SHT35;42558;52.388;13.390;2023-06-26T12:45:10;30.78;44.44
57709;SHT35;42558;52.388;13.390;2023-06-26T12:48:12;30.48;43.67
57709;SHT35;42558;52.388;13.390;2023-06-26T12:50:43;30.37;45.98
57709;SHT35;42558;52.388;13.390;2023-06-26T12:53:17;30.24;44.23
57709;SHT35;42558;52.388;13.390;2023-06-26T12:55:47;30.33;45.61
57709;SHT35;42558;52.388;13.390;2023-06-26T12:58:17;30.27;46.04
57709;SHT35;42558;52.388;13.390;2023-06-26T13:00:47;30.31;47.58
57709;SHT35;42558;52.388;13.390;2023-06-26T13:03:17;30.54;47.73
57709;SHT35;42558;52.388;13.390;2023-06-26T13:05:47;30.54;45.72
57709;SHT35;42558;52.388;13.390;2023-06-26T13:08:17;30.47;44.96
57709;SHT35;42558;52.388;13.390;2023-06-26T13:10:48;30.60;46.46
57709;SHT35;42558;52.388;13.390;2023-06-26T13:13:18;30.80;44.77
57709;SHT35;42558;52.388;13.390;2023-06-26T13:15:48;30.83;45.75
57709;SHT35;42558;52.388;13.390;2023-06-26T13:18:18;30.66;45.26
57709;SHT35;42558;52.388;13.390;2023-06-26T13:20:48;30.91;44.82
57709;SHT35;42558;52.388;13.390;2023-06-26T13:23:18;30.93;44.85
57709;SHT35;42558;52.388;13.390;2023-06-26T13:25:48;30.95;44.57
57709;SHT35;42558;52.388;13.390;2023-06-26T13:28:18;30.44;44.75
57709;SHT35;42558;52.388;13.390;2023-06-26T13:30:48;30.62;45.26
57709;SHT35;42558;52.388;13.390;2023-06-26T13:33:18;30.62;44.12
57709;SHT35;42558;52.388;13.390;2023-06-26T13:35:48;30.64;45.06
57709;SHT35;42558;52.388;13.390;2023-06-26T13:38:19;30.99;45.36
57709;SHT35;42558;52.388;13.390;2023-06-26T13:40:54;30.79;43.84
57709;SHT35;42558;52.388;13.390;2023-06-26T13:43:29;30.99;44.01
57709;SHT35;42558;52.388;13.390;2023-06-26T13:46:00;31.42;44.75
57709;SHT35;42558;52.388;13.390;2023-06-26T13:48:31;31.68;42.19
57709;SHT35;42558;52.388;13.390;2023-06-26T13:50:59;31.12;41.85
57709;SHT35;42558;52.388;13.390;2023-06-26T13:53:27;31.40;44.01
57709;SHT35;42558;52.388;13.390;2023-06-26T13:55:56;31.66;43.18
57709;SHT35;42558;52.388;13.390;2023-06-26T13:58:25;31.23;43.50
57709;SHT35;42558;52.388;13.390;2023-06-26T14:00:56;30.60;43.37
57709;SHT35;42558;52.388;13.390;2023-06-26T14:03:26;30.83;44.08
57709;SHT35;42558;52.388;13.390;2023-06-26T14:05:57;30.73;45.50
57709;SHT35;42558;52.388;13.390;2023-06-26T14:08:27;30.37;44.50
57709;SHT35;42558;52.388;13.390;2023-06-26T14:10:56;30.09;44.74
57709;SHT35;42558;52.388;13.390;2023-06-26T14:13:26;29.95;45.01
57709;SHT35;42558;52.388;13.390;2023-06-26T14:15:56;29.77;45.67
57709;SHT35;42558;52.388;13.390;2023-06-26T14:18:26;29.68;47.13
57709;SHT35;42558;52.388;13.390;2023-06-26T14:20:56;29.55;46.72
57709;SHT35;42558;52.388;13.390;2023-06-26T14:23:26;29.37;46.09
57709;SHT35;42558;52.388;13.390;2023-06-26T14:25:56;29.34;45.97
57709;SHT35;42558;52.388;13.390;2023-06-26T14:28:26;28.61;49.94
57709;SHT35;42558;52.388;13.390;2023-06-26T14:30:56;26.48;56.72
57709;SHT35;42558;52.388;13.390;2023-06-26T14:33:23;25.04;62.12
57709;SHT35;42558;52.388;13.390;2023-06-26T14:35:51;23.85;71.76
57709;SHT35;42558;52.388;13.390;2023-06-26T14:38:20;22.07;78.72
57709;SHT35;42558;52.388;13.390;2023-06-26T14:40:48;21.39;82.39
57709;SHT35;42558;52.388;13.390;2023-06-26T14:43:17;21.22;83.78
57709;SHT35;42558;52.388;13.390;2023-06-26T14:45:46;21.09;84.29
57709;SHT35;42558;52.388;13.390;2023-06-26T14:48:16;20.83;85.42
57709;SHT35;42558;52.388;13.390;2023-06-26T14:50:48;20.66;86.54
57709;SHT35;42558;52.388;13.390;2023-06-26T14:53:17;20.61;86.73
57709;SHT35;42558;52.388;13.390;2023-06-26T14:55:46;20.69;86.37
57709;SHT35;42558;52.388;13.390;2023-06-26T14:58:16;20.74;86.74
57709;SHT35;42558;52.388;13.390;2023-06-26T15:00:45;20.80;86.66
57709;SHT35;42558;52.388;13.390;2023-06-26T15:03:15;20.83;86.77
57709;SHT35;42558;52.388;13.390;2023-06-26T15:05:43;20.88;86.84
57709;SHT35;42558;52.388;13.390;2023-06-26T15:08:13;20.83;86.73
57709;SHT35;42558;52.388;13.390;2023-06-26T15:10:44;20.78;86.45
57709;SHT35;42558;52.388;13.390;2023-06-26T15:13:14;20.86;86.84
57709;SHT35;42558;52.388;13.390;2023-06-26T15:15:44;20.92;87.21
57709;SHT35;42558;52.388;13.390;2023-06-26T15:18:14;20.78;86.40
57709;SHT35;42558;52.388;13.390;2023-06-26T15:20:44;20.78;86.66
57709;SHT35;42558;52.388;13.390;2023-06-26T15:23:14;20.86;86.68
57709;SHT35;42558;52.388;13.390;2023-06-26T15:25:44;20.89;86.29
57709;SHT35;42558;52.388;13.390;2023-06-26T15:28:14;20.80;85.60
57709;SHT35;42558;52.388;13.390;2023-06-26T15:30:44;20.79;85.40
57709;SHT35;42558;52.388;13.390;2023-06-26T15:33:15;20.89;85.62
57709;SHT35;42558;52.388;13.390;2023-06-26T15:35:45;20.78;84.55
57709;SHT35;42558;52.388;13.390;2023-06-26T15:38:15;20.73;84.26
57709;SHT35;42558;52.388;13.390;2023-06-26T15:40:45;20.79;84.70
57709;SHT35;42558;52.388;13.390;2023-06-26T15:43:15;20.69;84.37
57709;SHT35;42558;52.388;13.390;2023-06-26T15:45:46;20.54;83.95
57709;SHT35;42558;52.388;13.390;2023-06-26T15:48:16;20.42;84.78
57709;SHT35;42558;52.388;13.390;2023-06-26T15:50:46;20.30;84.64
57709;SHT35;42558;52.388;13.390;2023-06-26T15:53:16;20.24;84.96
57709;SHT35;42558;52.388;13.390;2023-06-26T15:55:49;20.17;85.05